sensor_id;sensor_type;location;lat;lon;timestamp;P1;durP1;ratioP1;P2;durP2;ratioP2
40955;SDS011;26687;48.254;11.454;2023-07-13T00:04:52;2.83;;;1.98;;
40955;SDS011;26687;48.254;11.454;2023-07-13T00:07:52;2.60;;;1.80;;
40955;SDS011;26687;48.254;11.454;2023-07-13T00:10:53;4.88;;;2.40;;
40955;SDS011;26687;48.254;11.454;2023-07-13T00:13:54;3.40;;;2.10;;
40955;SDS011;26687;48.254;11.454;2023-07-13T00:16:54;2.28;;;2.08;;
40955;SDS011;26687;48.254;11.454;2023-07-13T00:19:55;2.70;;;1.90;;
40955;SDS011;26687;48.254;11.454;2023-07-13T00:22:56;4.03;;;2.28;;
40955;SDS011;26687;48.254;11.454;2023-07-13T00:25:56;3.37;;;2.03;;
40955;SDS011;26687;48.254;11.454;2023-07-13T00:28:57;2.03;;;1.90;;
40955;SDS011;26687;48.254;11.454;2023-07-13T00:31:57;2.90;;;2.00;;
40955;SDS011;26687;48.254;11.454;2023-07-13T00:34:58;1.88;;;1.77;;
40955;SDS011;26687;48.254;11.454;2023-07-13T00:38:00;2.27;;;1.80;;
40955;SDS011;26687;48.254;11.454;2023-07-13T00:41:01;2.22;;;1.77;;
40955;SDS011;26687;48.254;11.454;2023-07-13T00:44:01;3.27;;;2.17;;
40955;SDS011;26687;48.254;11.454;2023-07-13T00:47:02;3.67;;;2.22;;
40955;SDS011;26687;48.254;11.454;2023-07-13T00:50:03;3.23;;;2.10;;
40955;SDS011;26687;48.254;11.454;2023-07-13T00:53:03;3.45;;;2.22;;
40955;SDS011;26687;48.254;11.454;2023-07-13T00:56:04;2.50;;;2.30;;
40955;SDS011;26687;48.254;11.454;2023-07-13T00:59:04;4.20;;;2.70;;
40955;SDS011;26687;48.254;11.454;2023-07-13T01:02:06;3.90;;;2.20;;
40955;SDS011;26687;48.254;11.454;2023-07-13T01:05:13;2.55;;;2.03;;
40955;SDS011;26687;48.254;11.454;2023-07-13T01:08:14;3.80;;;1.90;;
40955;SDS011;26687;48.254;11.454;2023-07-13T01:11:18;3.13;;;1.90;;
40955;SDS011;26687;48.254;11.454;2023-07-13T01:14:18;2.95;;;2.10;;
40955;SDS011;26687;48.254;11.454;2023-07-13T01:17:18;4.00;;;2.53;;
40955;SDS011;26687;48.254;11.454;2023-07-13T01:20:19;4.87;;;2.27;;
40955;SDS011;26687;48.254;11.454;2023-07-13T01:23:19;3.20;;;2.40;;
40955;SDS011;26687;48.254;11.454;2023-07-13T01:26:19;4.07;;;2.67;;
40955;SDS011;26687;48.254;11.454;2023-07-13T01:29:19;5.20;;;2.80;;
40955;SDS011;26687;48.254;11.454;2023-07-13T01:32:20;5.32;;;2.58;;
40955;SDS011;26687;48.254;11.454;2023-07-13T01:35:21;3.35;;;2.15;;
40955;SDS011;26687;48.254;11.454;2023-07-13T01:38:22;3.70;;;2.30;;
40955;SDS011;26687;48.254;11.454;2023-07-13T01:41:22;2.95;;;1.85;;
40955;SDS011;26687;48.254;11.454;2023-07-13T01:44:22;3.17;;;2.35;;
40955;SDS011;26687;48.254;11.454;2023-07-13T01:47:23;2.73;;;2.17;;
40955;SDS011;26687;48.254;11.454;2023-07-13T01:50:24;3.75;;;2.17;;
40955;SDS011;26687;48.254;11.454;2023-07-13T01:53:24;3.05;;;2.03;;
40955;SDS011;26687;48.254;11.454;2023-07-13T01:56:24;2.63;;;2.07;;
40955;SDS011;26687;48.254;11.454;2023-07-13T01:59:24;2.75;;;2.13;;
40955;SDS011;26687;48.254;11.454;2023-07-13T02:02:25;2.40;;;2.15;;
40955;SDS011;26687;48.254;11.454;2023-07-13T02:05:25;2.70;;;2.42;;
40955;SDS011;26687;48.254;11.454;2023-07-13T02:08:25;3.17;;;2.55;;
40955;SDS011;26687;48.254;11.454;2023-07-13T02:11:26;3.33;;;2.47;;
40955;SDS011;26687;48.254;11.454;2023-07-13T02:14:32;3.33;;;2.40;;
40955;SDS011;26687;48.254;11.454;2023-07-13T02:17:33;2.50;;;2.30;;
40955;SDS011;26687;48.254;11.454;2023-07-13T02:20:33;4.18;;;2.58;;
40955;SDS011;26687;48.254;11.454;2023-07-13T02:23:33;2.95;;;2.55;;
40955;SDS011;26687;48.254;11.454;2023-07-13T02:26:34;3.28;;;2.38;;
40955;SDS011;26687;48.254;11.454;2023-07-13T02:29:34;4.90;;;2.70;;
40955;SDS011;26687;48.254;11.454;2023-07-13T02:32:34;3.17;;;2.58;;
40955;SDS011;26687;48.254;11.454;2023-07-13T02:35:35;5.20;;;2.58;;
40955;SDS011;26687;48.254;11.454;2023-07-13T02:38:35;2.83;;;2.60;;
40955;SDS011;26687;48.254;11.454;2023-07-13T02:41:38;2.90;;;2.53;;
40955;SDS011;26687;48.254;11.454;2023-07-13T02:44:38;3.00;;;2.50;;
40955;SDS011;26687;48.254;11.454;2023-07-13T02:47:40;4.57;;;2.70;;
40955;SDS011;26687;48.254;11.454;2023-07-13T02:50:40;3.55;;;2.90;;
40955;SDS011;26687;48.254;11.454;2023-07-13T02:53:40;2.53;;;2.20;;
40955;SDS011;26687;48.254;11.454;2023-07-13T02:56:40;4.72;;;3.30;;
40955;SDS011;26687;48.254;11.454;2023-07-13T02:59:40;3.60;;;2.85;;
40955;SDS011;26687;48.254;11.454;2023-07-13T03:02:41;2.85;;;2.55;;
40955;SDS011;26687;48.254;11.454;2023-07-13T03:05:42;5.25;;;2.90;;
40955;SDS011;26687;48.254;11.454;2023-07-13T03:08:43;3.13;;;2.83;;
40955;SDS011;26687;48.254;11.454;2023-07-13T03:11:43;3.95;;;2.83;;
40955;SDS011;26687;48.254;11.454;2023-07-13T03:14:43;4.50;;;2.47;;
40955;SDS011;26687;48.254;11.454;2023-07-13T03:17:44;3.08;;;2.25;;
40955;SDS011;26687;48.254;11.454;2023-07-13T03:20:44;3.70;;;2.88;;
40955;SDS011;26687;48.254;11.454;2023-07-13T03:23:44;3.70;;;2.80;;
40955;SDS011;26687;48.254;11.454;2023-07-13T03:26:44;2.50;;;2.30;;
40955;SDS011;26687;48.254;11.454;2023-07-13T03:29:44;4.60;;;2.30;;
40955;SDS011;26687;48.254;11.454;2023-07-13T03:32:45;3.22;;;2.22;;
40955;SDS011;26687;48.254;11.454;2023-07-13T03:35:45;4.63;;;2.43;;
40955;SDS011;26687;48.254;11.454;2023-07-13T03:39:06;4.32;;;2.80;;
40955;SDS011;26687;48.254;11.454;2023-07-13T03:42:08;2.90;;;2.58;;
40955;SDS011;26687;48.254;11.454;2023-07-13T03:45:08;2.80;;;2.60;;
40955;SDS011;26687;48.254;11.454;2023-07-13T03:48:08;2.65;;;2.03;;
40955;SDS011;26687;48.254;11.454;2023-07-13T03:51:08;3.42;;;2.50;;
40955;SDS011;26687;48.254;11.454;2023-07-13T03:54:09;2.88;;;2.40;;
40955;SDS011;26687;48.254;11.454;2023-07-13T03:57:09;4.55;;;2.13;;
40955;SDS011;26687;48.254;11.454;2023-07-13T04:00:09;3.07;;;2.33;;
40955;SDS011;26687;48.254;11.454;2023-07-13T04:03:10;2.33;;;2.00;;
40955;SDS011;26687;48.254;11.454;2023-07-13T04:06:15;3.83;;;2.20;;
40955;SDS011;26687;48.254;11.454;2023-07-13T04:09:20;4.32;;;2.40;;
40955;SDS011;26687;48.254;11.454;2023-07-13T04:12:21;3.00;;;2.20;;
40955;SDS011;26687;48.254;11.454;2023-07-13T04:15:21;6.63;;;2.20;;
40955;SDS011;26687;48.254;11.454;2023-07-13T04:18:21;2.47;;;2.25;;
40955;SDS011;26687;48.254;11.454;2023-07-13T04:21:21;3.38;;;1.80;;
40955;SDS011;26687;48.254;11.454;2023-07-13T04:24:22;2.88;;;2.20;;
40955;SDS011;26687;48.254;11.454;2023-07-13T04:27:22;1.70;;;1.60;;
40955;SDS011;26687;48.254;11.454;2023-07-13T04:30:22;2.13;;;1.92;;
40955;SDS011;26687;48.254;11.454;2023-07-13T04:33:22;2.77;;;2.03;;
40955;SDS011;26687;48.254;11.454;2023-07-13T04:36:23;3.10;;;2.10;;
40955;SDS011;26687;48.254;11.454;2023-07-13T04:39:26;2.83;;;2.03;;
40955;SDS011;26687;48.254;11.454;2023-07-13T04:42:27;2.45;;;2.10;;
40955;SDS011;26687;48.254;11.454;2023-07-13T04:45:27;2.80;;;2.07;;
40955;SDS011;26687;48.254;11.454;2023-07-13T04:48:27;3.53;;;2.10;;
40955;SDS011;26687;48.254;11.454;2023-07-13T04:51:27;2.45;;;2.20;;
40955;SDS011;26687;48.254;11.454;2023-07-13T04:54:27;3.97;;;2.40;;
40955;SDS011;26687;48.254;11.454;2023-07-13T04:57:27;3.38;;;2.00;;
40955;SDS011;26687;48.254;11.454;2023-07-13T05:00:28;3.40;;;2.13;;
40955;SDS011;26687;48.254;11.454;2023-07-13T05:03:28;2.35;;;1.85;;
40955;SDS011;26687;48.254;11.454;2023-07-13T05:06:29;4.73;;;1.60;;
40955;SDS011;26687;48.254;11.454;2023-07-13T05:09:30;2.08;;;1.98;;
40955;SDS011;26687;48.254;11.454;2023-07-13T05:12:30;3.85;;;2.10;;
40955;SDS011;26687;48.254;11.454;2023-07-13T05:15:30;3.40;;;2.30;;
40955;SDS011;26687;48.254;11.454;2023-07-13T05:18:33;2.20;;;2.00;;
40955;SDS011;26687;48.254;11.454;2023-07-13T05:21:33;2.28;;;1.73;;
40955;SDS011;26687;48.254;11.454;2023-07-13T05:24:33;3.17;;;2.28;;
40955;SDS011;26687;48.254;11.454;2023-07-13T05:27:34;2.15;;;1.95;;
40955;SDS011;26687;48.254;11.454;2023-07-13T05:30:34;2.08;;;1.88;;
40955;SDS011;26687;48.254;11.454;2023-07-13T05:33:34;3.70;;;2.23;;
40955;SDS011;26687;48.254;11.454;2023-07-13T05:36:35;1.97;;;1.87;;
40955;SDS011;26687;48.254;11.454;2023-07-13T05:39:35;2.97;;;1.92;;
40955;SDS011;26687;48.254;11.454;2023-07-13T05:42:35;2.65;;;1.90;;
40955;SDS011;26687;48.254;11.454;2023-07-13T05:45:35;2.08;;;1.85;;
40955;SDS011;26687;48.254;11.454;2023-07-13T05:48:35;2.25;;;1.92;;
40955;SDS011;26687;48.254;11.454;2023-07-13T05:51:36;2.92;;;1.70;;
40955;SDS011;26687;48.254;11.454;2023-07-13T05:54:36;5.27;;;2.37;;
40955;SDS011;26687;48.254;11.454;2023-07-13T05:57:36;5.60;;;2.40;;
40955;SDS011;26687;48.254;11.454;2023-07-13T06:00:36;4.00;;;2.17;;
40955;SDS011;26687;48.254;11.454;2023-07-13T06:03:36;2.53;;;2.33;;
40955;SDS011;26687;48.254;11.454;2023-07-13T06:06:39;2.75;;;2.20;;
40955;SDS011;26687;48.254;11.454;2023-07-13T06:09:39;3.08;;;2.00;;
40955;SDS011;26687;48.254;11.454;2023-07-13T06:12:40;2.72;;;2.17;;
40955;SDS011;26687;48.254;11.454;2023-07-13T06:15:40;2.80;;;1.80;;
40955;SDS011;26687;48.254;11.454;2023-07-13T06:18:40;3.73;;;1.80;;
40955;SDS011;26687;48.254;11.454;2023-07-13T06:21:40;2.70;;;2.20;;
40955;SDS011;26687;48.254;11.454;2023-07-13T06:24:40;4.50;;;1.77;;
40955;SDS011;26687;48.254;11.454;2023-07-13T06:27:40;5.82;;;1.77;;
40955;SDS011;26687;48.254;11.454;2023-07-13T06:30:41;2.30;;;2.10;;
40955;SDS011;26687;48.254;11.454;2023-07-13T06:33:41;1.65;;;1.55;;
40955;SDS011;26687;48.254;11.454;2023-07-13T06:36:41;2.35;;;1.98;;
40955;SDS011;26687;48.254;11.454;2023-07-13T06:39:41;4.73;;;2.00;;
40955;SDS011;26687;48.254;11.454;2023-07-13T06:42:41;2.93;;;1.70;;
40955;SDS011;26687;48.254;11.454;2023-07-13T06:45:44;2.25;;;2.05;;
40955;SDS011;26687;48.254;11.454;2023-07-13T06:48:45;4.07;;;1.67;;
40955;SDS011;26687;48.254;11.454;2023-07-13T06:51:46;3.83;;;1.70;;
40955;SDS011;26687;48.254;11.454;2023-07-13T06:54:46;2.95;;;1.98;;
40955;SDS011;26687;48.254;11.454;2023-07-13T06:57:46;5.03;;;1.63;;
40955;SDS011;26687;48.254;11.454;2023-07-13T07:00:46;4.03;;;1.60;;
40955;SDS011;26687;48.254;11.454;2023-07-13T07:03:50;3.60;;;1.88;;
40955;SDS011;26687;48.254;11.454;2023-07-13T07:06:50;3.50;;;1.60;;
40955;SDS011;26687;48.254;11.454;2023-07-13T07:09:50;4.60;;;1.55;;
40955;SDS011;26687;48.254;11.454;2023-07-13T07:12:50;4.20;;;1.50;;
40955;SDS011;26687;48.254;11.454;2023-07-13T07:15:50;3.73;;;1.67;;
40955;SDS011;26687;48.254;11.454;2023-07-13T07:18:51;4.93;;;1.50;;
40955;SDS011;26687;48.254;11.454;2023-07-13T07:21:51;1.90;;;1.55;;
40955;SDS011;26687;48.254;11.454;2023-07-13T07:24:51;3.47;;;1.63;;
40955;SDS011;26687;48.254;11.454;2023-07-13T07:27:52;3.57;;;1.60;;
40955;SDS011;26687;48.254;11.454;2023-07-13T07:30:52;2.73;;;1.60;;
40955;SDS011;26687;48.254;11.454;2023-07-13T07:33:53;2.22;;;1.70;;
40955;SDS011;26687;48.254;11.454;2023-07-13T07:36:53;2.65;;;1.48;;
40955;SDS011;26687;48.254;11.454;2023-07-13T07:39:53;3.67;;;1.67;;
40955;SDS011;26687;48.254;11.454;2023-07-13T07:42:53;2.10;;;1.55;;
40955;SDS011;26687;48.254;11.454;2023-07-13T07:45:54;1.90;;;1.65;;
40955;SDS011;26687;48.254;11.454;2023-07-13T07:48:54;3.95;;;1.48;;
40955;SDS011;26687;48.254;11.454;2023-07-13T07:51:55;1.75;;;1.35;;
40955;SDS011;26687;48.254;11.454;2023-07-13T07:54:55;4.93;;;1.58;;
40955;SDS011;26687;48.254;11.454;2023-07-13T07:57:56;2.50;;;1.40;;
40955;SDS011;26687;48.254;11.454;2023-07-13T08:01:03;3.45;;;1.42;;
40955;SDS011;26687;48.254;11.454;2023-07-13T08:04:04;1.55;;;1.40;;
40955;SDS011;26687;48.254;11.454;2023-07-13T08:07:04;2.97;;;1.50;;
40955;SDS011;26687;48.254;11.454;2023-07-13T08:10:05;1.65;;;1.27;;
40955;SDS011;26687;48.254;11.454;2023-07-13T08:13:06;3.03;;;1.48;;
40955;SDS011;26687;48.254;11.454;2023-07-13T08:16:06;2.67;;;1.33;;
40955;SDS011;26687;48.254;11.454;2023-07-13T08:19:07;2.08;;;1.42;;
40955;SDS011;26687;48.254;11.454;2023-07-13T08:22:07;1.50;;;1.30;;
40955;SDS011;26687;48.254;11.454;2023-07-13T08:25:07;1.50;;;1.35;;
40955;SDS011;26687;48.254;11.454;2023-07-13T08:28:07;1.88;;;1.20;;
40955;SDS011;26687;48.254;11.454;2023-07-13T08:31:08;2.93;;;1.40;;
40955;SDS011;26687;48.254;11.454;2023-07-13T08:34:08;2.05;;;1.40;;
40955;SDS011;26687;48.254;11.454;2023-07-13T08:37:09;2.40;;;1.60;;
40955;SDS011;26687;48.254;11.454;2023-07-13T08:40:10;2.93;;;1.60;;
40955;SDS011;26687;48.254;11.454;2023-07-13T08:43:16;3.65;;;1.60;;
40955;SDS011;26687;48.254;11.454;2023-07-13T08:46:25;3.50;;;1.45;;
40955;SDS011;26687;48.254;11.454;2023-07-13T08:49:26;2.28;;;1.15;;
40955;SDS011;26687;48.254;11.454;2023-07-13T08:52:35;2.33;;;1.23;;
40955;SDS011;26687;48.254;11.454;2023-07-13T08:55:36;4.00;;;1.30;;
40955;SDS011;26687;48.254;11.454;2023-07-13T08:58:38;2.13;;;1.40;;
40955;SDS011;26687;48.254;11.454;2023-07-13T09:05:02;3.35;;;1.17;;
40955;SDS011;26687;48.254;11.454;2023-07-13T09:08:08;3.45;;;1.30;;
40955;SDS011;26687;48.254;11.454;2023-07-13T09:17:41;5.00;;;1.30;;
40955;SDS011;26687;48.254;11.454;2023-07-13T09:23:48;1.80;;;1.05;;
40955;SDS011;26687;48.254;11.454;2023-07-13T09:26:50;2.80;;;1.30;;
40955;SDS011;26687;48.254;11.454;2023-07-13T09:29:54;2.67;;;1.30;;
40955;SDS011;26687;48.254;11.454;2023-07-13T09:32:57;1.45;;;1.13;;
40955;SDS011;26687;48.254;11.454;2023-07-13T09:35:58;1.45;;;1.08;;
40955;SDS011;26687;48.254;11.454;2023-07-13T09:45:17;2.47;;;1.10;;
40955;SDS011;26687;48.254;11.454;2023-07-13T09:48:26;3.47;;;1.15;;
40955;SDS011;26687;48.254;11.454;2023-07-13T09:51:33;2.40;;;1.02;;
40955;SDS011;26687;48.254;11.454;2023-07-13T09:54:34;2.23;;;1.10;;
40955;SDS011;26687;48.254;11.454;2023-07-13T09:57:34;1.80;;;1.20;;
40955;SDS011;26687;48.254;11.454;2023-07-13T10:00:34;3.35;;;1.67;;
40955;SDS011;26687;48.254;11.454;2023-07-13T10:03:35;2.60;;;1.30;;
40955;SDS011;26687;48.254;11.454;2023-07-13T10:06:40;2.10;;;1.17;;
40955;SDS011;26687;48.254;11.454;2023-07-13T10:09:43;4.00;;;1.30;;
40955;SDS011;26687;48.254;11.454;2023-07-13T10:12:43;2.88;;;1.27;;
40955;SDS011;26687;48.254;11.454;2023-07-13T10:15:44;2.70;;;1.38;;
40955;SDS011;26687;48.254;11.454;2023-07-13T10:18:46;3.03;;;1.03;;
40955;SDS011;26687;48.254;11.454;2023-07-13T10:21:49;2.58;;;1.15;;
40955;SDS011;26687;48.254;11.454;2023-07-13T10:24:51;1.33;;;1.10;;
40955;SDS011;26687;48.254;11.454;2023-07-13T10:27:54;2.65;;;1.00;;
40955;SDS011;26687;48.254;11.454;2023-07-13T10:30:56;1.95;;;1.13;;
40955;SDS011;26687;48.254;11.454;2023-07-13T10:33:58;0.97;;;0.90;;
40955;SDS011;26687;48.254;11.454;2023-07-13T10:36:58;2.15;;;1.33;;
40955;SDS011;26687;48.254;11.454;2023-07-13T10:40:00;1.33;;;0.93;;
40955;SDS011;26687;48.254;11.454;2023-07-13T10:43:01;1.15;;;1.05;;
40955;SDS011;26687;48.254;11.454;2023-07-13T10:46:04;4.00;;;1.40;;
40955;SDS011;26687;48.254;11.454;2023-07-13T10:49:05;2.00;;;1.10;;
40955;SDS011;26687;48.254;11.454;2023-07-13T10:52:20;1.85;;;1.20;;
40955;SDS011;26687;48.254;11.454;2023-07-13T10:55:30;3.55;;;1.52;;
40955;SDS011;26687;48.254;11.454;2023-07-13T10:58:37;4.53;;;1.40;;
40955;SDS011;26687;48.254;11.454;2023-07-13T11:01:46;4.63;;;1.33;;
40955;SDS011;26687;48.254;11.454;2023-07-13T11:04:48;3.08;;;1.35;;
40955;SDS011;26687;48.254;11.454;2023-07-13T11:07:54;3.53;;;1.13;;
40955;SDS011;26687;48.254;11.454;2023-07-13T11:10:55;2.97;;;1.40;;
40955;SDS011;26687;48.254;11.454;2023-07-13T11:13:57;2.75;;;1.33;;
40955;SDS011;26687;48.254;11.454;2023-07-13T11:16:58;3.37;;;1.20;;
40955;SDS011;26687;48.254;11.454;2023-07-13T11:29:45;2.07;;;1.40;;
40955;SDS011;26687;48.254;11.454;2023-07-13T11:32:45;3.42;;;1.23;;
40955;SDS011;26687;48.254;11.454;2023-07-13T11:39:19;2.08;;;1.25;;
40955;SDS011;26687;48.254;11.454;2023-07-13T11:42:22;4.28;;;1.20;;
40955;SDS011;26687;48.254;11.454;2023-07-13T11:45:22;9.53;;;1.10;;
40955;SDS011;26687;48.254;11.454;2023-07-13T11:51:29;2.50;;;1.15;;
40955;SDS011;26687;48.254;11.454;2023-07-13T11:54:34;1.60;;;0.90;;
40955;SDS011;26687;48.254;11.454;2023-07-13T11:57:49;1.80;;;1.00;;
40955;SDS011;26687;48.254;11.454;2023-07-13T12:00:50;2.65;;;0.93;;
40955;SDS011;26687;48.254;11.454;2023-07-13T12:03:50;1.45;;;0.85;;
40955;SDS011;26687;48.254;11.454;2023-07-13T12:06:55;0.77;;;0.77;;
40955;SDS011;26687;48.254;11.454;2023-07-13T12:10:02;4.18;;;0.85;;
40955;SDS011;26687;48.254;11.454;2023-07-13T12:13:04;1.30;;;0.70;;
40955;SDS011;26687;48.254;11.454;2023-07-13T12:16:15;2.80;;;0.82;;
40955;SDS011;26687;48.254;11.454;2023-07-13T12:19:23;1.05;;;0.93;;
40955;SDS011;26687;48.254;11.454;2023-07-13T12:22:25;1.75;;;1.00;;
40955;SDS011;26687;48.254;11.454;2023-07-13T12:25:25;3.40;;;1.00;;
40955;SDS011;26687;48.254;11.454;2023-07-13T12:34:30;6.20;;;1.00;;
40955;SDS011;26687;48.254;11.454;2023-07-13T12:37:30;4.07;;;0.90;;
40955;SDS011;26687;48.254;11.454;2023-07-13T12:40:34;1.73;;;0.90;;
40955;SDS011;26687;48.254;11.454;2023-07-13T12:43:36;2.42;;;1.10;;
40955;SDS011;26687;48.254;11.454;2023-07-13T12:46:37;1.27;;;0.93;;
40955;SDS011;26687;48.254;11.454;2023-07-13T12:49:40;1.93;;;1.33;;
40955;SDS011;26687;48.254;11.454;2023-07-13T12:52:42;1.52;;;1.10;;
40955;SDS011;26687;48.254;11.454;2023-07-13T12:55:45;1.25;;;0.80;;
40955;SDS011;26687;48.254;11.454;2023-07-13T13:01:49;2.13;;;1.02;;
40955;SDS011;26687;48.254;11.454;2023-07-13T13:04:50;2.28;;;1.00;;
40955;SDS011;26687;48.254;11.454;2023-07-13T13:07:50;1.80;;;1.10;;
40955;SDS011;26687;48.254;11.454;2023-07-13T13:10:50;1.57;;;0.97;;
40955;SDS011;26687;48.254;11.454;2023-07-13T13:13:50;1.65;;;0.95;;
40955;SDS011;26687;48.254;11.454;2023-07-13T13:16:51;3.63;;;1.00;;
40955;SDS011;26687;48.254;11.454;2023-07-13T13:19:53;3.10;;;0.87;;
40955;SDS011;26687;48.254;11.454;2023-07-13T13:22:54;1.92;;;1.00;;
40955;SDS011;26687;48.254;11.454;2023-07-13T13:25:55;1.42;;;0.93;;
40955;SDS011;26687;48.254;11.454;2023-07-13T13:28:55;1.45;;;0.70;;
40955;SDS011;26687;48.254;11.454;2023-07-13T13:31:55;1.48;;;1.00;;
40955;SDS011;26687;48.254;11.454;2023-07-13T13:34:56;1.95;;;1.00;;
40955;SDS011;26687;48.254;11.454;2023-07-13T13:37:56;1.98;;;1.17;;
40955;SDS011;26687;48.254;11.454;2023-07-13T13:40:56;3.13;;;1.23;;
40955;SDS011;26687;48.254;11.454;2023-07-13T13:43:56;1.90;;;1.00;;
40955;SDS011;26687;48.254;11.454;2023-07-13T13:46:57;2.38;;;1.10;;
40955;SDS011;26687;48.254;11.454;2023-07-13T13:49:58;3.38;;;0.85;;
40955;SDS011;26687;48.254;11.454;2023-07-13T13:52:58;2.00;;;0.70;;
40955;SDS011;26687;48.254;11.454;2023-07-13T13:55:58;1.80;;;0.85;;
40955;SDS011;26687;48.254;11.454;2023-07-13T13:58:59;1.88;;;1.00;;
40955;SDS011;26687;48.254;11.454;2023-07-13T14:01:59;2.72;;;1.05;;
40955;SDS011;26687;48.254;11.454;2023-07-13T14:05:02;1.13;;;0.85;;
40955;SDS011;26687;48.254;11.454;2023-07-13T14:08:03;3.30;;;0.98;;
40955;SDS011;26687;48.254;11.454;2023-07-13T14:11:03;3.37;;;0.90;;
40955;SDS011;26687;48.254;11.454;2023-07-13T14:14:03;3.07;;;1.13;;
40955;SDS011;26687;48.254;11.454;2023-07-13T14:17:04;2.45;;;0.93;;
40955;SDS011;26687;48.254;11.454;2023-07-13T14:20:05;2.27;;;1.00;;
40955;SDS011;26687;48.254;11.454;2023-07-13T14:23:09;0.95;;;0.77;;
40955;SDS011;26687;48.254;11.454;2023-07-13T14:26:14;2.03;;;1.03;;
40955;SDS011;26687;48.254;11.454;2023-07-13T14:29:18;1.38;;;0.90;;
40955;SDS011;26687;48.254;11.454;2023-07-13T14:32:19;1.35;;;1.10;;
40955;SDS011;26687;48.254;11.454;2023-07-13T14:35:20;2.50;;;0.93;;
40955;SDS011;26687;48.254;11.454;2023-07-13T14:38:21;1.70;;;0.90;;
40955;SDS011;26687;48.254;11.454;2023-07-13T14:41:22;2.90;;;1.20;;
40955;SDS011;26687;48.254;11.454;2023-07-13T14:44:31;2.03;;;1.50;;
40955;SDS011;26687;48.254;11.454;2023-07-13T14:47:31;3.90;;;1.02;;
40955;SDS011;26687;48.254;11.454;2023-07-13T14:50:31;3.58;;;1.45;;
40955;SDS011;26687;48.254;11.454;2023-07-13T14:53:32;1.60;;;0.80;;
40955;SDS011;26687;48.254;11.454;2023-07-13T14:56:32;2.20;;;1.00;;
40955;SDS011;26687;48.254;11.454;2023-07-13T14:59:32;2.83;;;1.00;;
40955;SDS011;26687;48.254;11.454;2023-07-13T15:02:33;3.13;;;1.23;;
40955;SDS011;26687;48.254;11.454;2023-07-13T15:05:34;2.58;;;1.02;;
40955;SDS011;26687;48.254;11.454;2023-07-13T15:08:34;2.25;;;1.13;;
40955;SDS011;26687;48.254;11.454;2023-07-13T15:11:35;2.27;;;1.00;;
40955;SDS011;26687;48.254;11.454;2023-07-13T15:14:35;2.40;;;1.00;;
40955;SDS011;26687;48.254;11.454;2023-07-13T15:17:37;1.70;;;0.90;;
40955;SDS011;26687;48.254;11.454;2023-07-13T15:20:37;1.93;;;1.03;;
40955;SDS011;26687;48.254;11.454;2023-07-13T15:23:37;0.70;;;0.70;;
40955;SDS011;26687;48.254;11.454;2023-07-13T15:26:37;0.90;;;0.77;;
40955;SDS011;26687;48.254;11.454;2023-07-13T15:29:38;1.60;;;1.10;;
40955;SDS011;26687;48.254;11.454;2023-07-13T15:32:43;1.70;;;1.00;;
40955;SDS011;26687;48.254;11.454;2023-07-13T15:35:43;2.47;;;0.90;;
40955;SDS011;26687;48.254;11.454;2023-07-13T15:38:44;2.35;;;1.30;;
40955;SDS011;26687;48.254;11.454;2023-07-13T15:41:47;1.10;;;0.73;;
40955;SDS011;26687;48.254;11.454;2023-07-13T15:44:47;1.00;;;0.80;;
40955;SDS011;26687;48.254;11.454;2023-07-13T15:47:48;2.40;;;1.00;;
40955;SDS011;26687;48.254;11.454;2023-07-13T15:50:49;1.55;;;0.90;;
40955;SDS011;26687;48.254;11.454;2023-07-13T15:53:50;2.15;;;1.20;;
40955;SDS011;26687;48.254;11.454;2023-07-13T15:56:53;1.55;;;1.00;;
40955;SDS011;26687;48.254;11.454;2023-07-13T15:59:54;4.55;;;1.13;;
40955;SDS011;26687;48.254;11.454;2023-07-13T16:02:54;3.27;;;0.90;;
40955;SDS011;26687;48.254;11.454;2023-07-13T16:05:55;3.70;;;1.20;;
40955;SDS011;26687;48.254;11.454;2023-07-13T16:08:55;1.85;;;1.30;;
40955;SDS011;26687;48.254;11.454;2023-07-13T16:11:56;3.80;;;1.40;;
40955;SDS011;26687;48.254;11.454;2023-07-13T16:14:57;3.30;;;1.42;;
40955;SDS011;26687;48.254;11.454;2023-07-13T16:17:57;2.13;;;1.40;;
40955;SDS011;26687;48.254;11.454;2023-07-13T16:20:58;3.00;;;1.13;;
40955;SDS011;26687;48.254;11.454;2023-07-13T16:24:00;3.53;;;1.23;;
40955;SDS011;26687;48.254;11.454;2023-07-13T16:27:00;2.28;;;1.02;;
40955;SDS011;26687;48.254;11.454;2023-07-13T16:30:11;1.93;;;0.93;;
40955;SDS011;26687;48.254;11.454;2023-07-13T16:33:11;2.67;;;1.02;;
40955;SDS011;26687;48.254;11.454;2023-07-13T16:36:11;1.52;;;0.80;;
40955;SDS011;26687;48.254;11.454;2023-07-13T16:39:12;2.63;;;0.90;;
40955;SDS011;26687;48.254;11.454;2023-07-13T16:42:14;1.52;;;1.23;;
40955;SDS011;26687;48.254;11.454;2023-07-13T16:45:15;3.00;;;1.00;;
40955;SDS011;26687;48.254;11.454;2023-07-13T16:48:16;2.23;;;1.20;;
40955;SDS011;26687;48.254;11.454;2023-07-13T16:51:16;1.40;;;1.17;;
40955;SDS011;26687;48.254;11.454;2023-07-13T16:54:16;2.60;;;1.20;;
40955;SDS011;26687;48.254;11.454;2023-07-13T16:57:23;2.05;;;1.08;;
40955;SDS011;26687;48.254;11.454;2023-07-13T17:00:27;1.40;;;1.20;;
40955;SDS011;26687;48.254;11.454;2023-07-13T17:03:30;1.95;;;1.17;;
40955;SDS011;26687;48.254;11.454;2023-07-13T17:06:32;4.32;;;1.38;;
40955;SDS011;26687;48.254;11.454;2023-07-13T17:09:32;2.73;;;0.90;;
40955;SDS011;26687;48.254;11.454;2023-07-13T17:12:33;1.08;;;0.73;;
40955;SDS011;26687;48.254;11.454;2023-07-13T17:15:33;2.10;;;1.10;;
40955;SDS011;26687;48.254;11.454;2023-07-13T17:18:34;2.20;;;1.07;;
40955;SDS011;26687;48.254;11.454;2023-07-13T17:24:37;1.73;;;1.10;;
40955;SDS011;26687;48.254;11.454;2023-07-13T17:27:37;2.33;;;1.20;;
40955;SDS011;26687;48.254;11.454;2023-07-13T17:30:41;2.75;;;1.02;;
40955;SDS011;26687;48.254;11.454;2023-07-13T17:33:41;2.10;;;1.00;;
40955;SDS011;26687;48.254;11.454;2023-07-13T17:36:42;1.87;;;0.73;;
40955;SDS011;26687;48.254;11.454;2023-07-13T17:39:42;1.50;;;1.13;;
40955;SDS011;26687;48.254;11.454;2023-07-13T17:42:45;1.55;;;1.00;;
40955;SDS011;26687;48.254;11.454;2023-07-13T17:45:46;1.90;;;1.20;;
40955;SDS011;26687;48.254;11.454;2023-07-13T17:48:46;2.80;;;0.90;;
40955;SDS011;26687;48.254;11.454;2023-07-13T17:51:48;2.53;;;1.15;;
40955;SDS011;26687;48.254;11.454;2023-07-13T17:54:49;2.13;;;1.00;;
40955;SDS011;26687;48.254;11.454;2023-07-13T17:57:50;1.83;;;1.30;;
40955;SDS011;26687;48.254;11.454;2023-07-13T18:00:50;2.37;;;1.10;;
40955;SDS011;26687;48.254;11.454;2023-07-13T18:03:51;1.40;;;1.20;;
40955;SDS011;26687;48.254;11.454;2023-07-13T18:06:52;2.72;;;1.20;;
40955;SDS011;26687;48.254;11.454;2023-07-13T18:09:56;2.63;;;1.00;;
40955;SDS011;26687;48.254;11.454;2023-07-13T18:12:56;1.10;;;1.00;;
40955;SDS011;26687;48.254;11.454;2023-07-13T18:15:56;1.33;;;0.93;;
40955;SDS011;26687;48.254;11.454;2023-07-13T18:18:58;1.95;;;0.90;;
40955;SDS011;26687;48.254;11.454;2023-07-13T18:21:59;1.40;;;1.17;;
40955;SDS011;26687;48.254;11.454;2023-07-13T18:25:03;1.70;;;0.90;;
40955;SDS011;26687;48.254;11.454;2023-07-13T18:28:05;1.67;;;1.08;;
40955;SDS011;26687;48.254;11.454;2023-07-13T18:31:07;0.93;;;0.80;;
40955;SDS011;26687;48.254;11.454;2023-07-13T18:34:10;1.67;;;1.10;;
40955;SDS011;26687;48.254;11.454;2023-07-13T18:37:15;2.08;;;1.10;;
40955;SDS011;26687;48.254;11.454;2023-07-13T18:40:19;1.52;;;1.00;;
40955;SDS011;26687;48.254;11.454;2023-07-13T18:43:24;1.85;;;1.20;;
40955;SDS011;26687;48.254;11.454;2023-07-13T18:46:28;1.58;;;1.25;;